sensor_id;sensor_type;location;lat;lon;timestamp;temperature;humidity
9305;DHT22;4690;52.422;13.486;2024-01-25T00:09:30;8.60;99.90
9305;DHT22;4690;52.422;13.486;2024-01-25T00:11:56;8.60;99.90
9305;DHT22;4690;52.422;13.486;2024-01-25T00:14:22;8.60;99.90
9305;DHT22;4690;52.422;13.486;2024-01-25T00:16:47;8.60;99.90
9305;DHT22;4690;52.422;13.486;2024-01-25T00:19:13;8.60;99.90
9305;DHT22;4690;52.422;13.486;2024-01-25T00:21:43;8.60;99.90
9305;DHT22;4690;52.422;13.486;2024-01-25T00:24:12;8.60;99.90
9305;DHT22;4690;52.422;13.486;2024-01-25T00:26:38;8.50;99.90
9305;DHT22;4690;52.422;13.486;2024-01-25T00:29:04;8.50;99.90
9305;DHT22;4690;52.422;13.486;2024-01-25T00:31:30;8.50;99.90
9305;DHT22;4690;52.422;13.486;2024-01-25T00:34:00;8.50;99.90
9305;DHT22;4690;52.422;13.486;2024-01-25T00:36:27;8.50;99.90
9305;DHT22;4690;52.422;13.486;2024-01-25T00:38:53;8.50;99.90
9305;DHT22;4690;52.422;13.486;2024-01-25T00:41:19;8.50;99.90
9305;DHT22;4690;52.422;13.486;2024-01-25T00:43:45;8.50;99.90
9305;DHT22;4690;52.422;13.486;2024-01-25T00:46:12;8.50;99.90
9305;DHT22;4690;52.422;13.486;2024-01-25T00:48:38;8.50;99.90
9305;DHT22;4690;52.422;13.486;2024-01-25T00:51:15;8.50;99.90
9305;DHT22;4690;52.422;13.486;2024-01-25T00:53:46;8.50;99.90
9305;DHT22;4690;52.422;13.486;2024-01-25T00:56:12;8.50;99.90
9305;DHT22;4690;52.422;13.486;2024-01-25T00:58:38;8.50;99.90
9305;DHT22;4690;52.422;13.486;2024-01-25T01:01:04;8.50;99.90
9305;DHT22;4690;52.422;13.486;2024-01-25T01:03:31;8.50;99.90
9305;DHT22;4690;52.422;13.486;2024-01-25T01:05:57;8.50;99.90
9305;DHT22;4690;52.422;13.486;2024-01-25T01:08:23;8.60;99.90
9305;DHT22;4690;52.422;13.486;2024-01-25T01:10:50;8.60;99.90
9305;DHT22;4690;52.422;13.486;2024-01-25T01:13:16;8.50;99.90
9305;DHT22;4690;52.422;13.486;2024-01-25T01:15:41;8.50;99.90
9305;DHT22;4690;52.422;13.486;2024-01-25T01:18:07;8.50;99.90
9305;DHT22;4690;52.422;13.486;2024-01-25T01:20:33;8.60;99.90
9305;DHT22;4690;52.422;13.486;2024-01-25T01:22:59;8.40;99.90
9305;DHT22;4690;52.422;13.486;2024-01-25T01:25:24;8.50;99.90
9305;DHT22;4690;52.422;13.486;2024-01-25T01:27:50;8.50;99.90
9305;DHT22;4690;52.422;13.486;2024-01-25T01:30:16;8.60;99.90
9305;DHT22;4690;52.422;13.486;2024-01-25T01:32:41;8.50;99.90
9305;DHT22;4690;52.422;13.486;2024-01-25T01:35:07;8.50;99.90
9305;DHT22;4690;52.422;13.486;2024-01-25T01:37:33;8.50;99.90
9305;DHT22;4690;52.422;13.486;2024-01-25T01:39:59;8.50;99.90
9305;DHT22;4690;52.422;13.486;2024-01-25T01:42:27;8.60;99.90
9305;DHT22;4690;52.422;13.486;2024-01-25T01:44:53;8.60;99.90
9305;DHT22;4690;52.422;13.486;2024-01-25T01:47:19;8.60;99.90
9305;DHT22;4690;52.422;13.486;2024-01-25T01:49:45;8.60;99.90
9305;DHT22;4690;52.422;13.486;2024-01-25T01:52:12;8.60;99.90
9305;DHT22;4690;52.422;13.486;2024-01-25T01:54:38;8.60;99.90
9305;DHT22;4690;52.422;13.486;2024-01-25T01:57:07;8.60;99.90
9305;DHT22;4690;52.422;13.486;2024-01-25T01:59:33;8.50;99.90
9305;DHT22;4690;52.422;13.486;2024-01-25T02:01:59;8.50;99.90
9305;DHT22;4690;52.422;13.486;2024-01-25T02:04:25;8.50;99.90
9305;DHT22;4690;52.422;13.486;2024-01-25T02:06:51;8.60;99.90
9305;DHT22;4690;52.422;13.486;2024-01-25T02:09:17;8.50;99.90
9305;DHT22;4690;52.422;13.486;2024-01-25T02:11:42;8.50;99.90
9305;DHT22;4690;52.422;13.486;2024-01-25T02:14:08;8.50;99.90
9305;DHT22;4690;52.422;13.486;2024-01-25T02:16:37;8.50;99.90
9305;DHT22;4690;52.422;13.486;2024-01-25T02:19:03;8.50;99.90
9305;DHT22;4690;52.422;13.486;2024-01-25T02:21:29;8.50;99.90
9305;DHT22;4690;52.422;13.486;2024-01-25T02:23:55;8.50;99.90
9305;DHT22;4690;52.422;13.486;2024-01-25T02:26:20;8.50;99.90
9305;DHT22;4690;52.422;13.486;2024-01-25T02:28:46;8.50;99.90
9305;DHT22;4690;52.422;13.486;2024-01-25T02:31:12;8.40;99.90
9305;DHT22;4690;52.422;13.486;2024-01-25T02:33:38;8.50;99.90
9305;DHT22;4690;52.422;13.486;2024-01-25T02:36:04;8.50;99.90
9305;DHT22;4690;52.422;13.486;2024-01-25T02:38:30;8.50;99.90
9305;DHT22;4690;52.422;13.486;2024-01-25T02:40:55;8.40;99.90
9305;DHT22;4690;52.422;13.486;2024-01-25T02:43:21;8.40;99.90
9305;DHT22;4690;52.422;13.486;2024-01-25T02:45:47;8.40;99.90
9305;DHT22;4690;52.422;13.486;2024-01-25T02:48:14;8.40;99.90
9305;DHT22;4690;52.422;13.486;2024-01-25T02:50:40;8.40;99.90
9305;DHT22;4690;52.422;13.486;2024-01-25T02:53:06;8.40;99.90
9305;DHT22;4690;52.422;13.486;2024-01-25T02:55:32;8.40;99.90
9305;DHT22;4690;52.422;13.486;2024-01-25T02:57:57;8.30;99.90
9305;DHT22;4690;52.422;13.486;2024-01-25T03:00:23;8.30;99.90
9305;DHT22;4690;52.422;13.486;2024-01-25T03:02:49;8.30;99.90
9305;DHT22;4690;52.422;13.486;2024-01-25T03:05:14;8.40;99.90
9305;DHT22;4690;52.422;13.486;2024-01-25T03:07:40;8.30;99.90
9305;DHT22;4690;52.422;13.486;2024-01-25T03:10:06;8.40;99.90
9305;DHT22;4690;52.422;13.486;2024-01-25T03:12:32;8.30;99.90
9305;DHT22;4690;52.422;13.486;2024-01-25T03:14:58;8.30;99.90
9305;DHT22;4690;52.422;13.486;2024-01-25T03:17:24;8.40;99.90
9305;DHT22;4690;52.422;13.486;2024-01-25T03:19:49;8.30;99.90
9305;DHT22;4690;52.422;13.486;2024-01-25T03:22:15;8.30;99.90
9305;DHT22;4690;52.422;13.486;2024-01-25T03:24:41;8.30;99.90
9305;DHT22;4690;52.422;13.486;2024-01-25T03:27:07;8.30;99.90
9305;DHT22;4690;52.422;13.486;2024-01-25T03:29:41;8.30;99.90
9305;DHT22;4690;52.422;13.486;2024-01-25T03:32:11;8.30;99.90
9305;DHT22;4690;52.422;13.486;2024-01-25T03:34:37;8.30;99.90
9305;DHT22;4690;52.422;13.486;2024-01-25T03:37:03;8.40;99.90
9305;DHT22;4690;52.422;13.486;2024-01-25T03:39:29;8.30;99.90
9305;DHT22;4690;52.422;13.486;2024-01-25T03:41:55;8.30;99.90
9305;DHT22;4690;52.422;13.486;2024-01-25T03:44:20;8.30;99.90
9305;DHT22;4690;52.422;13.486;2024-01-25T03:46:46;8.30;99.90
9305;DHT22;4690;52.422;13.486;2024-01-25T03:49:12;8.30;99.90
9305;DHT22;4690;52.422;13.486;2024-01-25T03:51:38;8.30;99.90
9305;DHT22;4690;52.422;13.486;2024-01-25T03:54:03;8.20;99.90
9305;DHT22;4690;52.422;13.486;2024-01-25T03:56:29;8.30;99.90
9305;DHT22;4690;52.422;13.486;2024-01-25T03:58:55;8.20;99.90
9305;DHT22;4690;52.422;13.486;2024-01-25T04:01:20;8.20;99.90
9305;DHT22;4690;52.422;13.486;2024-01-25T04:03:46;8.20;99.90
9305;DHT22;4690;52.422;13.486;2024-01-25T04:06:12;8.20;99.90
9305;DHT22;4690;52.422;13.486;2024-01-25T04:08:38;8.20;99.90
9305;DHT22;4690;52.422;13.486;2024-01-25T04:11:04;8.20;99.90
9305;DHT22;4690;52.422;13.486;2024-01-25T04:13:29;8.20;99.90
9305;DHT22;4690;52.422;13.486;2024-01-25T04:15:56;8.20;99.90
9305;DHT22;4690;52.422;13.486;2024-01-25T04:18:22;8.20;99.90
9305;DHT22;4690;52.422;13.486;2024-01-25T04:20:49;8.10;99.90
9305;DHT22;4690;52.422;13.486;2024-01-25T04:23:16;8.20;99.90
9305;DHT22;4690;52.422;13.486;2024-01-25T04:25:42;8.20;99.90
9305;DHT22;4690;52.422;13.486;2024-01-25T04:28:08;8.20;99.90
9305;DHT22;4690;52.422;13.486;2024-01-25T04:30:33;8.20;99.90
9305;DHT22;4690;52.422;13.486;2024-01-25T04:32:59;8.20;99.90
9305;DHT22;4690;52.422;13.486;2024-01-25T04:35:25;8.20;99.90
9305;DHT22;4690;52.422;13.486;2024-01-25T04:37:51;8.20;99.90
9305;DHT22;4690;52.422;13.486;2024-01-25T04:40:17;8.10;99.90
9305;DHT22;4690;52.422;13.486;2024-01-25T04:42:42;8.10;99.90
9305;DHT22;4690;52.422;13.486;2024-01-25T04:45:08;8.10;99.90
9305;DHT22;4690;52.422;13.486;2024-01-25T04:47:34;8.10;99.90
9305;DHT22;4690;52.422;13.486;2024-01-25T04:50:02;8.10;99.90
9305;DHT22;4690;52.422;13.486;2024-01-25T04:52:28;8.10;99.90
9305;DHT22;4690;52.422;13.486;2024-01-25T04:54:53;8.10;99.90
9305;DHT22;4690;52.422;13.486;2024-01-25T04:57:19;8.10;99.90
9305;DHT22;4690;52.422;13.486;2024-01-25T04:59:45;8.10;99.90
9305;DHT22;4690;52.422;13.486;2024-01-25T05:02:10;8.10;99.90
9305;DHT22;4690;52.422;13.486;2024-01-25T05:04:36;8.10;99.90
9305;DHT22;4690;52.422;13.486;2024-01-25T05:07:02;8.10;99.90
9305;DHT22;4690;52.422;13.486;2024-01-25T05:09:28;8.00;99.90
9305;DHT22;4690;52.422;13.486;2024-01-25T05:11:53;8.10;99.90
9305;DHT22;4690;52.422;13.486;2024-01-25T05:14:24;8.00;99.90
9305;DHT22;4690;52.422;13.486;2024-01-25T05:16:50;8.00;99.90
9305;DHT22;4690;52.422;13.486;2024-01-25T05:19:15;8.00;99.90
9305;DHT22;4690;52.422;13.486;2024-01-25T05:21:42;8.00;99.90
9305;DHT22;4690;52.422;13.486;2024-01-25T05:24:07;8.00;99.90
9305;DHT22;4690;52.422;13.486;2024-01-25T05:26:35;8.00;99.90
9305;DHT22;4690;52.422;13.486;2024-01-25T05:29:01;7.90;99.90
9305;DHT22;4690;52.422;13.486;2024-01-25T05:31:26;8.10;99.90
9305;DHT22;4690;52.422;13.486;2024-01-25T05:33:52;7.90;99.90
9305;DHT22;4690;52.422;13.486;2024-01-25T05:36:18;8.00;99.90
9305;DHT22;4690;52.422;13.486;2024-01-25T05:38:43;8.00;99.90
9305;DHT22;4690;52.422;13.486;2024-01-25T05:41:09;8.00;99.90
9305;DHT22;4690;52.422;13.486;2024-01-25T05:43:35;8.00;99.90
9305;DHT22;4690;52.422;13.486;2024-01-25T05:46:01;8.00;99.90
9305;DHT22;4690;52.422;13.486;2024-01-25T05:48:27;8.00;99.90
9305;DHT22;4690;52.422;13.486;2024-01-25T05:50:52;8.10;99.90
9305;DHT22;4690;52.422;13.486;2024-01-25T05:53:18;8.00;99.90
9305;DHT22;4690;52.422;13.486;2024-01-25T05:55:45;8.00;99.90
9305;DHT22;4690;52.422;13.486;2024-01-25T05:58:11;8.00;99.90
9305;DHT22;4690;52.422;13.486;2024-01-25T06:00:36;8.00;99.90
9305;DHT22;4690;52.422;13.486;2024-01-25T06:03:02;8.00;99.90
9305;DHT22;4690;52.422;13.486;2024-01-25T06:05:28;8.00;99.90
9305;DHT22;4690;52.422;13.486;2024-01-25T06:07:54;8.00;99.90
9305;DHT22;4690;52.422;13.486;2024-01-25T06:10:19;7.90;99.90
9305;DHT22;4690;52.422;13.486;2024-01-25T06:12:45;7.90;99.90
9305;DHT22;4690;52.422;13.486;2024-01-25T06:15:11;7.90;99.90
9305;DHT22;4690;52.422;13.486;2024-01-25T06:17:36;7.90;99.90
9305;DHT22;4690;52.422;13.486;2024-01-25T06:20:03;7.90;99.90
9305;DHT22;4690;52.422;13.486;2024-01-25T06:22:30;7.90;99.90
9305;DHT22;4690;52.422;13.486;2024-01-25T06:24:55;7.90;99.90
9305;DHT22;4690;52.422;13.486;2024-01-25T06:27:21;7.90;99.90
9305;DHT22;4690;52.422;13.486;2024-01-25T06:29:47;7.90;99.90
9305;DHT22;4690;52.422;13.486;2024-01-25T06:32:13;8.00;99.90
9305;DHT22;4690;52.422;13.486;2024-01-25T06:34:38;7.90;99.90
9305;DHT22;4690;52.422;13.486;2024-01-25T06:37:04;7.90;99.90
9305;DHT22;4690;52.422;13.486;2024-01-25T06:39:30;7.90;99.90
9305;DHT22;4690;52.422;13.486;2024-01-25T06:41:56;7.80;99.90
9305;DHT22;4690;52.422;13.486;2024-01-25T06:44:21;7.90;99.90
9305;DHT22;4690;52.422;13.486;2024-01-25T06:46:47;7.90;99.90
9305;DHT22;4690;52.422;13.486;2024-01-25T06:49:13;7.90;99.90
9305;DHT22;4690;52.422;13.486;2024-01-25T06:51:39;7.90;99.90
9305;DHT22;4690;52.422;13.486;2024-01-25T06:54:04;7.90;99.90
9305;DHT22;4690;52.422;13.486;2024-01-25T06:56:30;7.90;99.90
9305;DHT22;4690;52.422;13.486;2024-01-25T06:58:56;7.90;99.90
9305;DHT22;4690;52.422;13.486;2024-01-25T07:01:23;7.90;99.90
9305;DHT22;4690;52.422;13.486;2024-01-25T07:03:49;7.90;99.90
9305;DHT22;4690;52.422;13.486;2024-01-25T07:06:18;7.90;99.90
9305;DHT22;4690;52.422;13.486;2024-01-25T07:08:45;7.90;99.90
9305;DHT22;4690;52.422;13.486;2024-01-25T07:11:11;7.90;99.90
9305;DHT22;4690;52.422;13.486;2024-01-25T07:13:37;8.00;99.90
9305;DHT22;4690;52.422;13.486;2024-01-25T07:16:03;7.90;99.90
9305;DHT22;4690;52.422;13.486;2024-01-25T07:18:29;7.90;99.90
9305;DHT22;4690;52.422;13.486;2024-01-25T07:20:54;7.90;99.90
9305;DHT22;4690;52.422;13.486;2024-01-25T07:23:21;7.90;99.90
9305;DHT22;4690;52.422;13.486;2024-01-25T07:25:47;8.00;99.90
9305;DHT22;4690;52.422;13.486;2024-01-25T07:28:13;8.00;99.90
9305;DHT22;4690;52.422;13.486;2024-01-25T07:30:39;8.00;99.90
9305;DHT22;4690;52.422;13.486;2024-01-25T07:33:05;8.00;99.90
9305;DHT22;4690;52.422;13.486;2024-01-25T07:35:31;8.00;99.90
9305;DHT22;4690;52.422;13.486;2024-01-25T07:37:57;7.90;99.90
9305;DHT22;4690;52.422;13.486;2024-01-25T07:40:23;8.00;99.90
9305;DHT22;4690;52.422;13.486;2024-01-25T07:42:49;8.00;99.90
9305;DHT22;4690;52.422;13.486;2024-01-25T07:45:14;8.00;99.90
9305;DHT22;4690;52.422;13.486;2024-01-25T07:47:43;7.90;99.90
9305;DHT22;4690;52.422;13.486;2024-01-25T07:50:09;8.00;99.90
9305;DHT22;4690;52.422;13.486;2024-01-25T07:52:35;8.00;99.90
9305;DHT22;4690;52.422;13.486;2024-01-25T07:55:01;7.90;99.90
9305;DHT22;4690;52.422;13.486;2024-01-25T07:57:27;7.90;99.90
9305;DHT22;4690;52.422;13.486;2024-01-25T07:59:52;7.90;99.90
9305;DHT22;4690;52.422;13.486;2024-01-25T08:02:18;8.00;99.90
9305;DHT22;4690;52.422;13.486;2024-01-25T08:04:44;7.90;99.90
9305;DHT22;4690;52.422;13.486;2024-01-25T08:07:10;7.90;99.90
9305;DHT22;4690;52.422;13.486;2024-01-25T08:09:36;7.90;99.90
9305;DHT22;4690;52.422;13.486;2024-01-25T08:12:02;7.90;99.90
9305;DHT22;4690;52.422;13.486;2024-01-25T08:14:28;7.90;99.90
9305;DHT22;4690;52.422;13.486;2024-01-25T08:16:54;7.90;99.90
9305;DHT22;4690;52.422;13.486;2024-01-25T08:19:21;7.90;99.90
9305;DHT22;4690;52.422;13.486;2024-01-25T08:21:46;7.90;99.90
9305;DHT22;4690;52.422;13.486;2024-01-25T08:24:12;7.90;99.90
9305;DHT22;4690;52.422;13.486;2024-01-25T08:26:38;8.00;99.90
9305;DHT22;4690;52.422;13.486;2024-01-25T08:29:04;8.00;99.90
9305;DHT22;4690;52.422;13.486;2024-01-25T08:31:29;8.00;99.90
9305;DHT22;4690;52.422;13.486;2024-01-25T08:33:55;8.00;99.90
9305;DHT22;4690;52.422;13.486;2024-01-25T08:36:21;8.00;99.90
9305;DHT22;4690;52.422;13.486;2024-01-25T08:38:48;8.10;99.90
9305;DHT22;4690;52.422;13.486;2024-01-25T08:41:14;8.10;99.90
9305;DHT22;4690;52.422;13.486;2024-01-25T08:43:41;8.10;99.90
9305;DHT22;4690;52.422;13.486;2024-01-25T08:46:07;8.10;99.90
9305;DHT22;4690;52.422;13.486;2024-01-25T08:48:34;8.10;99.90
9305;DHT22;4690;52.422;13.486;2024-01-25T08:51:00;8.20;99.90
9305;DHT22;4690;52.422;13.486;2024-01-25T08:53:25;8.20;99.90
9305;DHT22;4690;52.422;13.486;2024-01-25T08:55:56;8.20;99.90
9305;DHT22;4690;52.422;13.486;2024-01-25T08:58:22;8.20;99.90
9305;DHT22;4690;52.422;13.486;2024-01-25T09:00:48;8.20;99.90
9305;DHT22;4690;52.422;13.486;2024-01-25T09:03:15;8.20;99.90
9305;DHT22;4690;52.422;13.486;2024-01-25T09:05:40;8.20;99.90
9305;DHT22;4690;52.422;13.486;2024-01-25T09:08:11;8.20;99.90
9305;DHT22;4690;52.422;13.486;2024-01-25T09:10:38;8.20;99.90
9305;DHT22;4690;52.422;13.486;2024-01-25T09:13:04;8.20;99.90
9305;DHT22;4690;52.422;13.486;2024-01-25T09:15:30;8.30;99.90
9305;DHT22;4690;52.422;13.486;2024-01-25T09:17:55;8.20;99.90
9305;DHT22;4690;52.422;13.486;2024-01-25T09:20:21;8.20;99.90
9305;DHT22;4690;52.422;13.486;2024-01-25T09:22:47;8.20;99.90
9305;DHT22;4690;52.422;13.486;2024-01-25T09:25:13;8.20;99.90
9305;DHT22;4690;52.422;13.486;2024-01-25T09:27:38;8.10;99.90
9305;DHT22;4690;52.422;13.486;2024-01-25T09:30:07;8.20;99.90
9305;DHT22;4690;52.422;13.486;2024-01-25T09:32:33;8.20;99.90
9305;DHT22;4690;52.422;13.486;2024-01-25T09:34:59;8.20;99.90
9305;DHT22;4690;52.422;13.486;2024-01-25T09:37:25;8.20;99.90
9305;DHT22;4690;52.422;13.486;2024-01-25T09:39:51;8.10;99.90
9305;DHT22;4690;52.422;13.486;2024-01-25T09:42:17;8.10;99.90
9305;DHT22;4690;52.422;13.486;2024-01-25T09:44:44;8.10;99.90
9305;DHT22;4690;52.422;13.486;2024-01-25T09:47:10;8.10;99.90
9305;DHT22;4690;52.422;13.486;2024-01-25T09:49:37;8.20;99.90
9305;DHT22;4690;52.422;13.486;2024-01-25T09:52:04;8.20;99.90
9305;DHT22;4690;52.422;13.486;2024-01-25T09:54:38;8.20;99.90
9305;DHT22;4690;52.422;13.486;2024-01-25T09:57:15;8.20;99.90
9305;DHT22;4690;52.422;13.486;2024-01-25T09:59:43;8.10;99.90
9305;DHT22;4690;52.422;13.486;2024-01-25T10:02:10;8.10;99.90
9305;DHT22;4690;52.422;13.486;2024-01-25T10:04:36;8.10;99.90
9305;DHT22;4690;52.422;13.486;2024-01-25T10:07:02;8.10;99.90
9305;DHT22;4690;52.422;13.486;2024-01-25T10:09:28;8.20;99.90
9305;DHT22;4690;52.422;13.486;2024-01-25T10:11:54;8.20;99.90
9305;DHT22;4690;52.422;13.486;2024-01-25T10:14:20;8.20;99.90
9305;DHT22;4690;52.422;13.486;2024-01-25T10:16:46;8.10;99.90
9305;DHT22;4690;52.422;13.486;2024-01-25T10:19:12;8.10;99.90
9305;DHT22;4690;52.422;13.486;2024-01-25T10:21:38;8.10;99.90
9305;DHT22;4690;52.422;13.486;2024-01-25T10:24:06;8.10;99.90
9305;DHT22;4690;52.422;13.486;2024-01-25T10:26:34;8.20;99.90
9305;DHT22;4690;52.422;13.486;2024-01-25T10:29:01;8.10;99.90
9305;DHT22;4690;52.422;13.486;2024-01-25T10:31:28;8.10;99.90
9305;DHT22;4690;52.422;13.486;2024-01-25T10:33:55;8.20;99.90
9305;DHT22;4690;52.422;13.486;2024-01-25T10:36:22;8.20;99.90
9305;DHT22;4690;52.422;13.486;2024-01-25T10:38:49;8.20;99.90
9305;DHT22;4690;52.422;13.486;2024-01-25T10:41:16;8.30;99.90
9305;DHT22;4690;52.422;13.486;2024-01-25T10:43:44;8.20;99.90
9305;DHT22;4690;52.422;13.486;2024-01-25T10:46:11;8.30;99.90
9305;DHT22;4690;52.422;13.486;2024-01-25T10:48:38;8.30;99.90
9305;DHT22;4690;52.422;13.486;2024-01-25T10:51:05;8.30;99.90
9305;DHT22;4690;52.422;13.486;2024-01-25T10:53:32;8.30;99.90
9305;DHT22;4690;52.422;13.486;2024-01-25T10:56:01;8.40;99.90
9305;DHT22;4690;52.422;13.486;2024-01-25T10:58:34;8.30;99.90
9305;DHT22;4690;52.422;13.486;2024-01-25T11:01:01;8.30;99.90
9305;DHT22;4690;52.422;13.486;2024-01-25T11:03:34;8.40;99.90
9305;DHT22;4690;52.422;13.486;2024-01-25T11:06:10;8.40;99.90
9305;DHT22;4690;52.422;13.486;2024-01-25T11:08:37;8.40;99.90
9305;DHT22;4690;52.422;13.486;2024-01-25T11:11:08;8.40;99.90
9305;DHT22;4690;52.422;13.486;2024-01-25T11:13:39;8.50;99.90
9305;DHT22;4690;52.422;13.486;2024-01-25T11:16:18;8.50;99.90
9305;DHT22;4690;52.422;13.486;2024-01-25T11:18:54;8.50;99.90
9305;DHT22;4690;52.422;13.486;2024-01-25T11:21:42;8.60;99.90
9305;DHT22;4690;52.422;13.486;2024-01-25T11:24:14;8.60;99.90
9305;DHT22;4690;52.422;13.486;2024-01-25T11:26:48;8.60;99.90
9305;DHT22;4690;52.422;13.486;2024-01-25T11:29:19;8.60;99.90
9305;DHT22;4690;52.422;13.486;2024-01-25T11:31:49;8.70;99.90
9305;DHT22;4690;52.422;13.486;2024-01-25T11:34:16;8.80;99.90
9305;DHT22;4690;52.422;13.486;2024-01-25T11:36:47;8.70;99.90
9305;DHT22;4690;52.422;13.486;2024-01-25T11:39:15;8.80;99.90
9305;DHT22;4690;52.422;13.486;2024-01-25T11:41:44;8.90;99.90
9305;DHT22;4690;52.422;13.486;2024-01-25T11:44:13;8.90;99.90
9305;DHT22;4690;52.422;13.486;2024-01-25T11:46:39;8.80;99.90
9305;DHT22;4690;52.422;13.486;2024-01-25T11:49:05;8.80;99.90
9305;DHT22;4690;52.422;13.486;2024-01-25T11:51:34;8.70;99.90
9305;DHT22;4690;52.422;13.486;2024-01-25T11:54:00;8.70;99.90
9305;DHT22;4690;52.422;13.486;2024-01-25T11:56:32;8.70;99.90
9305;DHT22;4690;52.422;13.486;2024-01-25T11:59:01;8.70;99.90
9305;DHT22;4690;52.422;13.486;2024-01-25T12:01:28;8.70;99.90
9305;DHT22;4690;52.422;13.486;2024-01-25T12:03:56;8.80;99.90
9305;DHT22;4690;52.422;13.486;2024-01-25T12:06:22;8.80;99.90
9305;DHT22;4690;52.422;13.486;2024-01-25T12:08:47;8.80;99.90
9305;DHT22;4690;52.422;13.486;2024-01-25T12:11:14;8.90;99.90
9305;DHT22;4690;52.422;13.486;2024-01-25T12:13:41;8.90;99.90
9305;DHT22;4690;52.422;13.486;2024-01-25T12:16:09;8.90;99.90
9305;DHT22;4690;52.422;13.486;2024-01-25T12:18:37;8.90;99.90
9305;DHT22;4690;52.422;13.486;2024-01-25T12:21:05;8.90;99.90
9305;DHT22;4690;52.422;13.486;2024-01-25T12:23:35;8.90;99.90
9305;DHT22;4690;52.422;13.486;2024-01-25T12:26:07;9.00;99.90
9305;DHT22;4690;52.422;13.486;2024-01-25T12:28:34;9.20;99.90
9305;DHT22;4690;52.422;13.486;2024-01-25T12:31:02;9.20;99.90
9305;DHT22;4690;52.422;13.486;2024-01-25T12:33:30;9.10;99.90
9305;DHT22;4690;52.422;13.486;2024-01-25T12:35:57;9.00;99.90
9305;DHT22;4690;52.422;13.486;2024-01-25T12:38:24;9.10;99.90
9305;DHT22;4690;52.422;13.486;2024-01-25T12:40:51;9.10;99.90
9305;DHT22;4690;52.422;13.486;2024-01-25T12:43:20;9.00;99.90
9305;DHT22;4690;52.422;13.486;2024-01-25T12:45:49;9.00;99.90
9305;DHT22;4690;52.422;13.486;2024-01-25T12:48:17;9.00;99.90
9305;DHT22;4690;52.422;13.486;2024-01-25T12:50:43;9.10;99.90
9305;DHT22;4690;52.422;13.486;2024-01-25T12:53:12;9.10;99.90
9305;DHT22;4690;52.422;13.486;2024-01-25T12:55:39;9.10;99.90
9305;DHT22;4690;52.422;13.486;2024-01-25T12:58:05;9.20;99.90
9305;DHT22;4690;52.422;13.486;2024-01-25T13:00:31;9.20;99.90
9305;DHT22;4690;52.422;13.486;2024-01-25T13:02:58;9.10;99.90
9305;DHT22;4690;52.422;13.486;2024-01-25T13:05:27;9.30;99.90
9305;DHT22;4690;52.422;13.486;2024-01-25T13:07:53;9.40;99.90
9305;DHT22;4690;52.422;13.486;2024-01-25T13:10:19;9.30;99.90
9305;DHT22;4690;52.422;13.486;2024-01-25T13:12:45;9.30;99.90
9305;DHT22;4690;52.422;13.486;2024-01-25T13:15:10;9.40;99.90
9305;DHT22;4690;52.422;13.486;2024-01-25T13:17:36;9.50;99.90
9305;DHT22;4690;52.422;13.486;2024-01-25T13:20:03;9.60;99.90
9305;DHT22;4690;52.422;13.486;2024-01-25T13:22:32;9.70;99.90
9305;DHT22;4690;52.422;13.486;2024-01-25T13:24:59;9.60;99.90
9305;DHT22;4690;52.422;13.486;2024-01-25T13:27:26;9.70;99.90
9305;DHT22;4690;52.422;13.486;2024-01-25T13:29:52;9.80;99.90
9305;DHT22;4690;52.422;13.486;2024-01-25T13:32:19;9.80;99.90
9305;DHT22;4690;52.422;13.486;2024-01-25T13:34:44;9.80;99.90
9305;DHT22;4690;52.422;13.486;2024-01-25T13:37:10;9.70;99.90
9305;DHT22;4690;52.422;13.486;2024-01-25T13:39:36;9.60;99.90
9305;DHT22;4690;52.422;13.486;2024-01-25T13:42:02;9.60;99.90
9305;DHT22;4690;52.422;13.486;2024-01-25T13:44:27;9.70;99.90
9305;DHT22;4690;52.422;13.486;2024-01-25T13:46:53;9.60;99.90
9305;DHT22;4690;52.422;13.486;2024-01-25T13:49:21;9.60;99.90
9305;DHT22;4690;52.422;13.486;2024-01-25T13:51:47;9.40;99.90
9305;DHT22;4690;52.422;13.486;2024-01-25T13:54:13;9.40;99.90
9305;DHT22;4690;52.422;13.486;2024-01-25T13:56:39;9.20;99.90
9305;DHT22;4690;52.422;13.486;2024-01-25T13:59:05;9.10;99.90
9305;DHT22;4690;52.422;13.486;2024-01-25T14:01:31;9.10;99.90
9305;DHT22;4690;52.422;13.486;2024-01-25T14:03:57;9.00;99.90
9305;DHT22;4690;52.422;13.486;2024-01-25T14:06:23;9.00;99.90
9305;DHT22;4690;52.422;13.486;2024-01-25T14:08:49;8.90;99.90
9305;DHT22;4690;52.422;13.486;2024-01-25T14:11:15;9.00;99.90
9305;DHT22;4690;52.422;13.486;2024-01-25T14:13:41;9.00;99.90
9305;DHT22;4690;52.422;13.486;2024-01-25T14:16:07;9.00;99.90
9305;DHT22;4690;52.422;13.486;2024-01-25T14:18:39;8.90;99.90
9305;DHT22;4690;52.422;13.486;2024-01-25T14:21:06;8.80;99.90
9305;DHT22;4690;52.422;13.486;2024-01-25T14:23:32;8.80;99.90
9305;DHT22;4690;52.422;13.486;2024-01-25T14:25:58;8.80;99.90
9305;DHT22;4690;52.422;13.486;2024-01-25T14:28:23;8.80;99.90
9305;DHT22;4690;52.422;13.486;2024-01-25T14:30:49;8.80;99.90
9305;DHT22;4690;52.422;13.486;2024-01-25T14:33:15;8.70;99.90
9305;DHT22;4690;52.422;13.486;2024-01-25T14:35:41;8.70;99.90
9305;DHT22;4690;52.422;13.486;2024-01-25T14:38:06;8.70;99.90
9305;DHT22;4690;52.422;13.486;2024-01-25T14:40:32;8.60;99.90
9305;DHT22;4690;52.422;13.486;2024-01-25T14:42:58;8.70;99.90
9305;DHT22;4690;52.422;13.486;2024-01-25T14:45:24;8.60;99.90
9305;DHT22;4690;52.422;13.486;2024-01-25T14:47:50;8.50;99.90
9305;DHT22;4690;52.422;13.486;2024-01-25T14:50:15;8.50;99.90
9305;DHT22;4690;52.422;13.486;2024-01-25T14:52:41;8.50;99.90
9305;DHT22;4690;52.422;13.486;2024-01-25T14:55:07;8.40;99.90
9305;DHT22;4690;52.422;13.486;2024-01-25T14:57:33;8.50;99.90
9305;DHT22;4690;52.422;13.486;2024-01-25T15:00:00;8.40;99.90
9305;DHT22;4690;52.422;13.486;2024-01-25T15:02:26;8.40;99.90
9305;DHT22;4690;52.422;13.486;2024-01-25T15:04:52;8.40;99.90
9305;DHT22;4690;52.422;13.486;2024-01-25T15:07:17;8.30;99.90
9305;DHT22;4690;52.422;13.486;2024-01-25T15:09:47;8.30;99.90
9305;DHT22;4690;52.422;13.486;2024-01-25T15:12:14;8.30;99.90
9305;DHT22;4690;52.422;13.486;2024-01-25T15:14:40;8.30;99.90
9305;DHT22;4690;52.422;13.486;2024-01-25T15:17:06;8.30;99.90
9305;DHT22;4690;52.422;13.486;2024-01-25T15:19:32;8.30;99.90
9305;DHT22;4690;52.422;13.486;2024-01-25T15:21:58;8.20;99.90
9305;DHT22;4690;52.422;13.486;2024-01-25T15:24:23;8.20;99.90
9305;DHT22;4690;52.422;13.486;2024-01-25T15:26:49;8.20;99.90
9305;DHT22;4690;52.422;13.486;2024-01-25T15:29:15;8.20;99.90
9305;DHT22;4690;52.422;13.486;2024-01-25T15:31:40;8.10;99.90
9305;DHT22;4690;52.422;13.486;2024-01-25T15:34:06;8.10;99.90
9305;DHT22;4690;52.422;13.486;2024-01-25T15:36:32;8.10;99.90
9305;DHT22;4690;52.422;13.486;2024-01-25T15:39:00;8.10;99.90
9305;DHT22;4690;52.422;13.486;2024-01-25T15:41:28;8.10;99.90
9305;DHT22;4690;52.422;13.486;2024-01-25T15:43:56;8.10;99.90
9305;DHT22;4690;52.422;13.486;2024-01-25T15:46:22;8.10;99.90
9305;DHT22;4690;52.422;13.486;2024-01-25T15:48:48;8.10;99.90
9305;DHT22;4690;52.422;13.486;2024-01-25T15:51:16;8.10;99.90
9305;DHT22;4690;52.422;13.486;2024-01-25T15:53:42;8.10;99.90
9305;DHT22;4690;52.422;13.486;2024-01-25T15:56:08;8.10;99.90
9305;DHT22;4690;52.422;13.486;2024-01-25T15:58:33;8.10;99.90
9305;DHT22;4690;52.422;13.486;2024-01-25T16:00:59;8.10;99.90
9305;DHT22;4690;52.422;13.486;2024-01-25T16:03:25;8.10;99.90
9305;DHT22;4690;52.422;13.486;2024-01-25T16:05:50;8.00;99.90